createdAt,value
2019-05-16T00:00:30.713Z,0.00
2019-05-16T00:01:30.722Z,0.00
2019-05-16T00:02:30.700Z,0.00
2019-05-16T00:03:30.680Z,0.00
2019-05-16T00:04:30.668Z,0.00
2019-05-16T00:05:30.656Z,0.00
2019-05-16T00:06:30.647Z,0.00
2019-05-16T00:07:30.643Z,0.00
2019-05-16T00:08:30.625Z,0.00
2019-05-16T00:09:30.613Z,0.00
2019-05-16T00:10:30.625Z,0.00
2019-05-16T00:11:30.591Z,0.00
2019-05-16T00:12:30.587Z,0.00
2019-05-16T00:13:30.569Z,0.00
2019-05-16T00:14:30.560Z,0.00
2019-05-16T00:15:30.555Z,0.00
2019-05-16T00:16:30.536Z,0.00
2019-05-16T00:17:30.534Z,0.00
2019-05-16T00:18:30.516Z,0.00
2019-05-16T00:19:30.505Z,0.00
2019-05-16T00:20:30.491Z,0.00
2019-05-16T00:21:30.482Z,0.00
2019-05-16T00:22:30.477Z,0.00
2019-05-16T00:23:30.458Z,0.00
2019-05-16T00:24:30.448Z,0.00
2019-05-16T00:25:30.437Z,0.00
2019-05-16T00:26:30.425Z,0.00
2019-05-16T00:27:30.423Z,0.00
2019-05-16T00:28:30.410Z,0.00
2019-05-16T00:29:30.393Z,0.00
2019-05-16T00:30:30.381Z,0.00
2019-05-16T00:31:30.374Z,0.00
2019-05-16T00:32:30.369Z,0.00
2019-05-16T00:33:30.355Z,0.00
2019-05-16T00:34:30.337Z,0.00
2019-05-16T00:35:30.328Z,0.00
2019-05-16T00:36:30.317Z,0.00
2019-05-16T00:37:30.322Z,0.00
2019-05-16T00:38:30.293Z,0.00
2019-05-16T00:39:30.283Z,0.00
2019-05-16T00:40:30.271Z,0.00
2019-05-16T00:41:30.260Z,0.00
2019-05-16T00:42:30.282Z,0.00
2019-05-16T00:43:30.239Z,0.00
2019-05-16T00:44:30.228Z,0.00
2019-05-16T00:45:30.216Z,0.00
2019-05-16T00:46:30.210Z,0.00
2019-05-16T00:47:30.199Z,0.00
2019-05-16T00:48:30.191Z,0.00
2019-05-16T00:49:30.172Z,0.00
2019-05-16T00:50:30.164Z,0.00
2019-05-16T00:51:30.150Z,0.00
2019-05-16T00:52:30.139Z,0.00
2019-05-16T00:53:30.138Z,0.00
2019-05-16T00:54:30.117Z,0.00
2019-05-16T00:55:30.109Z,0.00
2019-05-16T00:56:30.104Z,0.00
2019-05-16T00:57:30.083Z,0.00
2019-05-16T00:58:30.081Z,0.00
2019-05-16T00:59:30.062Z,0.00
2019-05-16T01:00:30.051Z,0.00
2019-05-16T01:01:30.040Z,0.00
2019-05-16T01:02:30.029Z,0.00
2019-05-16T01:03:30.027Z,0.00
2019-05-16T01:04:30.008Z,0.00
2019-05-16T01:05:29.996Z,0.00
2019-05-16T01:06:29.985Z,0.00
2019-05-16T01:07:29.974Z,0.00
2019-05-16T01:08:29.972Z,0.00
2019-05-16T01:09:29.958Z,0.00
2019-05-16T01:10:29.942Z,0.00
2019-05-16T01:11:29.932Z,0.00
2019-05-16T01:12:29.919Z,0.00
2019-05-16T01:13:29.918Z,0.00
2019-05-16T01:14:29.897Z,0.00
2019-05-16T01:15:29.887Z,0.00
2019-05-16T01:16:29.876Z,0.00
2019-05-16T01:17:29.866Z,0.00
2019-05-16T01:18:29.865Z,0.00
2019-05-16T01:19:29.843Z,0.00
2019-05-16T01:20:29.833Z,0.00
2019-05-16T01:21:29.822Z,0.00
2019-05-16T01:22:29.810Z,0.00
2019-05-16T01:23:29.814Z,0.00
2019-05-16T01:24:29.789Z,0.00
2019-05-16T01:25:29.778Z,0.00
2019-05-16T01:26:29.766Z,0.00
2019-05-16T01:27:29.756Z,0.00
2019-05-16T01:28:29.755Z,0.00
2019-05-16T01:29:29.733Z,0.00
2019-05-16T01:30:29.730Z,0.00
2019-05-16T01:31:29.710Z,0.00
2019-05-16T01:32:32.115Z,0.00
2019-05-16T01:33:29.697Z,0.00
2019-05-16T01:34:29.679Z,0.00
2019-05-16T01:35:29.668Z,0.00
2019-05-16T01:36:36.877Z,0.00
2019-05-16T01:37:30.644Z,0.00
2019-05-16T01:38:29.642Z,0.00
2019-05-16T01:39:29.624Z,0.00
2019-05-16T01:40:29.614Z,0.00
2019-05-16T01:41:29.604Z,0.00
2019-05-16T01:42:29.591Z,0.00
2019-05-16T01:43:29.589Z,0.00
2019-05-16T01:44:29.578Z,0.00
2019-05-16T01:45:29.559Z,0.00
2019-05-16T01:46:29.554Z,0.00
2019-05-16T01:47:29.536Z,0.00
2019-05-16T01:48:29.554Z,0.00
2019-05-16T01:49:29.516Z,0.00
2019-05-16T01:50:29.504Z,0.00
2019-05-16T01:51:29.495Z,0.00
2019-05-16T01:52:29.482Z,0.00
2019-05-16T01:53:29.475Z,0.00
2019-05-16T01:54:29.469Z,0.00
2019-05-16T01:55:29.449Z,0.00
2019-05-16T01:56:29.439Z,0.00
2019-05-16T01:57:29.428Z,0.00
2019-05-16T01:58:29.418Z,0.00
2019-05-16T01:59:29.415Z,0.00
2019-05-16T02:00:36.820Z,0.00
2019-05-16T02:01:30.384Z,0.00
2019-05-16T02:02:29.374Z,0.00
2019-05-16T02:03:29.363Z,0.00
2019-05-16T02:04:29.362Z,0.00
2019-05-16T02:05:29.345Z,0.00
2019-05-16T02:06:29.331Z,0.00
2019-05-16T02:07:29.319Z,0.00
2019-05-16T02:08:29.317Z,0.00
2019-05-16T02:09:29.309Z,0.00
2019-05-16T02:10:29.294Z,0.00
2019-05-16T02:11:29.276Z,0.00
2019-05-16T02:12:29.264Z,0.00
2019-05-16T02:13:29.255Z,0.00
2019-05-16T02:14:29.251Z,0.00
2019-05-16T02:15:29.233Z,0.00
2019-05-16T02:16:29.226Z,0.00
2019-05-16T02:17:29.213Z,0.00
2019-05-16T02:18:29.199Z,0.00
2019-05-16T02:19:29.197Z,0.00
2019-05-16T02:20:29.179Z,0.00
2019-05-16T02:21:29.167Z,0.00
2019-05-16T02:22:29.157Z,0.00
2019-05-16T02:23:29.145Z,0.00
2019-05-16T02:24:29.143Z,0.00
2019-05-16T02:25:29.123Z,0.00
2019-05-16T02:26:29.117Z,0.00
2019-05-16T02:27:29.103Z,0.00
2019-05-16T02:28:33.673Z,0.00
2019-05-16T02:29:30.090Z,0.00
2019-05-16T02:30:31.535Z,0.00
2019-05-16T02:31:31.310Z,0.00
2019-05-16T02:32:31.221Z,0.00
2019-05-16T02:33:31.696Z,0.00
2019-05-16T02:34:30.754Z,0.00
2019-05-16T02:35:31.108Z,0.00
2019-05-16T02:36:31.370Z,0.00
2019-05-16T02:37:34.109Z,0.00
2019-05-16T02:38:31.667Z,0.00
2019-05-16T02:39:30.533Z,0.00
2019-05-16T02:40:31.250Z,0.00
2019-05-16T02:41:31.146Z,0.00
2019-05-16T02:42:31.012Z,0.00
2019-05-16T02:43:31.276Z,0.00
2019-05-16T02:44:31.954Z,0.00
2019-05-16T02:45:32.165Z,0.00
2019-05-16T02:46:30.809Z,0.00
2019-05-16T02:47:31.481Z,0.00
2019-05-16T02:48:31.717Z,0.00
2019-05-16T02:49:30.643Z,0.00
2019-05-16T02:50:31.613Z,0.00
2019-05-16T02:51:31.515Z,0.00
2019-05-16T02:52:31.565Z,0.00
2019-05-16T02:53:31.007Z,0.00
2019-05-16T02:54:31.413Z,0.00
2019-05-16T02:55:30.767Z,0.00
2019-05-16T02:56:31.667Z,0.00
2019-05-16T02:57:31.607Z,0.00
2019-05-16T02:58:30.700Z,0.00
2019-05-16T02:59:30.701Z,0.00
2019-05-16T03:00:30.908Z,0.00
2019-05-16T03:01:31.626Z,0.00
2019-05-16T03:02:31.261Z,0.00
2019-05-16T03:03:31.474Z,0.00
2019-05-16T03:04:30.585Z,0.00
2019-05-16T03:05:30.571Z,0.00
2019-05-16T03:06:31.778Z,0.00
2019-05-16T03:07:37.641Z,0.00
2019-05-16T03:08:31.972Z,0.00
2019-05-16T03:09:30.479Z,0.00
2019-05-16T03:10:31.102Z,0.00
2019-05-16T03:11:31.479Z,0.00
2019-05-16T03:12:30.954Z,0.00
2019-05-16T03:13:31.070Z,0.00
2019-05-16T03:14:31.595Z,0.00
2019-05-16T03:15:30.960Z,0.00
2019-05-16T03:16:31.574Z,0.00
2019-05-16T03:17:31.618Z,0.00
2019-05-16T03:18:31.050Z,0.00
2019-05-16T03:19:31.119Z,0.00
2019-05-16T03:20:31.339Z,0.00
2019-05-16T03:21:30.808Z,0.00
2019-05-16T03:22:31.255Z,0.00
2019-05-16T03:23:30.855Z,0.00
2019-05-16T03:24:31.028Z,0.00
2019-05-16T03:25:31.036Z,0.00
2019-05-16T03:26:31.278Z,0.00
2019-05-16T03:27:30.535Z,0.00
2019-05-16T03:28:30.714Z,0.00
2019-05-16T03:29:30.837Z,0.00
2019-05-16T03:30:34.182Z,0.00
2019-05-16T03:31:33.876Z,0.00
2019-05-16T03:32:33.957Z,0.00
2019-05-16T03:33:34.984Z,0.00
2019-05-16T03:34:34.530Z,0.00
2019-05-16T03:35:33.849Z,0.00
2019-05-16T03:36:34.201Z,0.00
2019-05-16T03:37:30.758Z,0.00
2019-05-16T03:38:30.761Z,0.00
2019-05-16T03:39:31.170Z,0.00
2019-05-16T03:40:31.427Z,0.00
2019-05-16T03:41:30.875Z,0.00
2019-05-16T03:42:30.859Z,0.00
2019-05-16T03:43:30.952Z,0.00
2019-05-16T03:44:31.487Z,0.00
2019-05-16T03:45:31.505Z,0.00
2019-05-16T03:46:30.908Z,0.00
2019-05-16T03:47:31.060Z,0.00
2019-05-16T03:48:31.247Z,0.00
2019-05-16T03:49:31.262Z,0.00
2019-05-16T03:50:30.661Z,0.00
2019-05-16T03:51:30.708Z,0.00
2019-05-16T03:52:30.771Z,0.00
2019-05-16T03:53:31.445Z,0.00
2019-05-16T03:54:31.168Z,0.00
2019-05-16T03:55:28.158Z,0.00
2019-05-16T03:56:30.672Z,0.00
2019-05-16T03:57:30.677Z,0.00
2019-05-16T03:58:30.799Z,0.00
2019-05-16T03:59:31.201Z,5.62
2019-05-16T04:00:31.553Z,5.62
2019-05-16T04:01:31.115Z,5.62
2019-05-16T04:02:30.852Z,5.62
2019-05-16T04:03:30.071Z,5.62
2019-05-16T04:04:30.815Z,5.62
2019-05-16T04:05:28.039Z,5.62
2019-05-16T04:06:30.977Z,5.62
2019-05-16T04:07:31.405Z,5.62
2019-05-16T04:08:31.032Z,5.62
2019-05-16T04:09:31.330Z,5.62
2019-05-16T04:10:30.738Z,5.62
2019-05-16T04:11:31.797Z,5.62
2019-05-16T04:12:30.671Z,5.62
2019-05-16T04:13:31.106Z,5.62
2019-05-16T04:14:30.824Z,0.00
2019-05-16T04:15:30.943Z,0.00
2019-05-16T04:16:31.043Z,0.00
2019-05-16T04:17:27.910Z,0.00
2019-05-16T04:18:27.894Z,5.62
2019-05-16T04:19:31.176Z,5.62
2019-05-16T04:20:30.502Z,5.62
2019-05-16T04:21:31.895Z,5.62
2019-05-16T04:22:27.852Z,5.62
2019-05-16T04:23:30.986Z,5.62
2019-05-16T04:24:27.828Z,5.62
2019-05-16T04:25:30.923Z,5.62
2019-05-16T04:26:30.584Z,5.62
2019-05-16T04:27:30.769Z,5.62
2019-05-16T04:28:27.787Z,5.62
2019-05-16T04:29:31.280Z,5.62
2019-05-16T04:30:30.995Z,5.62
2019-05-16T04:31:30.567Z,5.62
2019-05-16T04:32:27.740Z,5.62
2019-05-16T04:33:30.614Z,5.62
2019-05-16T04:34:30.860Z,5.62
2019-05-16T04:35:27.713Z,5.62
2019-05-16T04:36:27.707Z,5.62
2019-05-16T04:37:31.155Z,5.62
2019-05-16T04:38:36.402Z,5.62
2019-05-16T04:39:31.916Z,5.62
2019-05-16T04:40:30.951Z,5.62
2019-05-16T04:41:27.650Z,5.62
2019-05-16T04:42:30.753Z,5.62
2019-05-16T04:43:31.322Z,5.62
2019-05-16T04:44:30.692Z,5.62
2019-05-16T04:45:27.597Z,5.62
2019-05-16T04:46:27.616Z,5.62
2019-05-16T04:47:27.575Z,5.62
2019-05-16T04:48:30.706Z,5.62
2019-05-16T04:49:27.554Z,5.62
2019-05-16T04:50:27.546Z,5.62
2019-05-16T04:51:30.494Z,5.62
2019-05-16T04:52:30.506Z,5.62
2019-05-16T04:53:27.525Z,5.62
2019-05-16T04:54:30.580Z,5.62
2019-05-16T04:55:27.488Z,5.62
2019-05-16T04:56:30.653Z,5.62
2019-05-16T04:57:27.477Z,5.62
2019-05-16T04:58:27.465Z,5.62
2019-05-16T04:59:27.443Z,5.62
2019-05-16T05:00:27.436Z,5.62
2019-05-16T05:01:30.531Z,5.62
2019-05-16T05:02:30.641Z,5.62
2019-05-16T05:03:27.402Z,5.62
2019-05-16T05:04:30.284Z,11.25
2019-05-16T05:05:27.380Z,11.25
2019-05-16T05:06:27.367Z,11.25
2019-05-16T05:07:27.368Z,11.25
2019-05-16T05:08:30.506Z,11.25
2019-05-16T05:09:27.335Z,11.25
2019-05-16T05:10:27.325Z,11.25
2019-05-16T05:11:28.101Z,11.25
2019-05-16T05:12:27.317Z,11.25
2019-05-16T05:13:27.297Z,11.25
2019-05-16T05:14:27.283Z,11.25
2019-05-16T05:15:27.271Z,11.25
2019-05-16T05:16:27.259Z,11.25
2019-05-16T05:17:27.258Z,11.25
2019-05-16T05:18:30.061Z,11.25
2019-05-16T05:19:27.225Z,11.25
2019-05-16T05:20:30.218Z,11.25
2019-05-16T05:21:27.207Z,11.25
2019-05-16T05:22:27.201Z,16.88
2019-05-16T05:23:27.181Z,16.88
2019-05-16T05:24:27.170Z,16.88
2019-05-16T05:25:27.164Z,16.88
2019-05-16T05:26:27.149Z,16.88
2019-05-16T05:27:27.146Z,22.50
2019-05-16T05:28:27.126Z,22.50
2019-05-16T05:29:27.114Z,22.50
2019-05-16T05:30:27.104Z,16.88
2019-05-16T05:31:27.106Z,16.88
2019-05-16T05:32:27.094Z,22.50
2019-05-16T05:33:27.077Z,22.50
2019-05-16T05:34:27.059Z,22.50
2019-05-16T05:35:27.050Z,22.50
2019-05-16T05:36:27.038Z,22.50
2019-05-16T05:37:27.041Z,16.88
2019-05-16T05:38:27.019Z,22.50
2019-05-16T05:39:27.008Z,22.50
2019-05-16T05:40:26.994Z,28.12
2019-05-16T05:41:26.982Z,28.12
2019-05-16T05:42:26.982Z,28.12
2019-05-16T05:43:26.964Z,28.12
2019-05-16T05:44:26.955Z,22.50
2019-05-16T05:45:26.938Z,28.12
2019-05-16T05:46:26.944Z,33.75
2019-05-16T05:47:26.926Z,33.75
2019-05-16T05:48:26.910Z,33.75
2019-05-16T05:49:26.895Z,28.12
2019-05-16T05:50:26.885Z,28.12
2019-05-16T05:51:26.874Z,28.12
2019-05-16T05:52:26.893Z,33.75
2019-05-16T05:53:26.870Z,33.75
2019-05-16T05:54:26.845Z,33.75
2019-05-16T05:55:26.834Z,33.75
2019-05-16T05:56:26.820Z,33.75
2019-05-16T05:57:26.816Z,33.75
2019-05-16T05:58:26.806Z,33.75
2019-05-16T05:59:26.793Z,33.75
2019-05-16T06:00:26.775Z,33.75
2019-05-16T06:01:26.767Z,33.75
2019-05-16T06:02:26.754Z,28.12
2019-05-16T06:03:26.751Z,28.12
2019-05-16T06:04:26.737Z,28.12
2019-05-16T06:05:26.721Z,28.12
2019-05-16T06:06:26.711Z,28.12
2019-05-16T06:07:26.698Z,33.75
2019-05-16T06:08:26.697Z,33.75
2019-05-16T06:09:32.013Z,33.75
2019-05-16T06:10:27.664Z,39.38
2019-05-16T06:11:26.661Z,33.75
2019-05-16T06:12:26.645Z,33.75
2019-05-16T06:13:26.643Z,28.12
2019-05-16T06:14:26.621Z,22.50
2019-05-16T06:15:26.610Z,22.50
2019-05-16T06:16:26.601Z,22.50
2019-05-16T06:17:26.589Z,22.50
2019-05-16T06:18:26.590Z,28.12
2019-05-16T06:19:26.567Z,28.12
2019-05-16T06:20:26.558Z,33.75
2019-05-16T06:21:26.545Z,33.75
2019-05-16T06:22:26.536Z,33.75
2019-05-16T06:23:26.532Z,33.75
2019-05-16T06:24:26.514Z,33.75
2019-05-16T06:25:26.503Z,28.12
2019-05-16T06:26:26.495Z,33.75
2019-05-16T06:27:26.479Z,33.75
2019-05-16T06:28:26.477Z,39.38
2019-05-16T06:29:26.459Z,50.62
2019-05-16T06:30:26.446Z,50.62
2019-05-16T06:31:26.434Z,56.25
2019-05-16T06:32:26.424Z,61.88
2019-05-16T06:33:26.422Z,67.50
2019-05-16T06:34:26.400Z,61.88
2019-05-16T06:35:26.390Z,61.88
2019-05-16T06:36:26.378Z,73.12
2019-05-16T06:37:26.368Z,67.50
2019-05-16T06:38:26.366Z,61.88
2019-05-16T06:39:39.257Z,56.25
2019-05-16T06:40:29.438Z,50.62
2019-05-16T06:41:26.326Z,50.62
2019-05-16T06:42:26.312Z,45.00
2019-05-16T06:43:26.311Z,45.00
2019-05-16T06:44:26.290Z,45.00
2019-05-16T06:45:26.280Z,39.38
2019-05-16T06:46:26.268Z,39.38
2019-05-16T06:47:26.266Z,33.75
2019-05-16T06:48:26.257Z,33.75
2019-05-16T06:49:26.237Z,33.75
2019-05-16T06:50:26.224Z,28.12
2019-05-16T06:51:26.214Z,33.75
2019-05-16T06:52:26.209Z,33.75
2019-05-16T06:53:26.201Z,33.75
2019-05-16T06:54:26.182Z,33.75
2019-05-16T06:55:26.170Z,33.75
2019-05-16T06:56:26.159Z,33.75
2019-05-16T06:57:26.147Z,33.75
2019-05-16T06:58:26.146Z,33.75
2019-05-16T06:59:26.127Z,33.75
2019-05-16T07:00:26.122Z,39.38
2019-05-16T07:01:26.103Z,45.00
2019-05-16T07:02:30.660Z,45.00
2019-05-16T07:03:27.104Z,50.62
2019-05-16T07:04:26.071Z,50.62
2019-05-16T07:05:26.060Z,56.25
2019-05-16T07:06:47.617Z,56.25
2019-05-16T07:07:27.036Z,56.25
2019-05-16T07:08:26.027Z,56.25
2019-05-16T07:09:26.024Z,56.25
2019-05-16T07:10:26.008Z,56.25
2019-05-16T07:11:25.999Z,50.62
2019-05-16T07:12:25.983Z,50.62
2019-05-16T07:13:25.973Z,50.62
2019-05-16T07:14:28.346Z,45.00
2019-05-16T07:15:26.950Z,39.38
2019-05-16T07:16:25.954Z,39.38
2019-05-16T07:17:25.931Z,39.38
2019-05-16T07:18:25.934Z,45.00
2019-05-16T07:19:25.919Z,45.00
2019-05-16T07:20:25.895Z,50.62
2019-05-16T07:21:25.883Z,56.25
2019-05-16T07:22:25.872Z,56.25
2019-05-16T07:23:25.861Z,56.25
2019-05-16T07:24:25.858Z,50.62
2019-05-16T07:25:25.840Z,45.00
2019-05-16T07:26:25.830Z,45.00
2019-05-16T07:27:25.819Z,45.00
2019-05-16T07:28:25.806Z,39.38
2019-05-16T07:29:25.809Z,39.38
2019-05-16T07:30:25.785Z,39.38
2019-05-16T07:31:25.777Z,39.38
2019-05-16T07:32:25.766Z,39.38
2019-05-16T07:33:25.750Z,39.38
2019-05-16T07:34:25.748Z,39.38
2019-05-16T07:35:25.729Z,33.75
2019-05-16T07:36:25.718Z,33.75
2019-05-16T07:37:25.707Z,33.75
2019-05-16T07:38:25.696Z,33.75
2019-05-16T07:39:25.697Z,39.38
2019-05-16T07:40:26.913Z,39.38
2019-05-16T07:41:25.666Z,45.00
2019-05-16T07:42:25.651Z,45.00
2019-05-16T07:43:25.647Z,50.62
2019-05-16T07:44:25.637Z,50.62
2019-05-16T07:45:25.618Z,45.00
2019-05-16T07:46:25.608Z,45.00
2019-05-16T07:47:25.596Z,39.38
2019-05-16T07:48:25.586Z,45.00
2019-05-16T07:49:25.582Z,45.00
2019-05-16T07:50:25.570Z,45.00
2019-05-16T07:51:25.552Z,39.38
2019-05-16T07:52:25.541Z,39.38
2019-05-16T07:53:25.530Z,33.75
2019-05-16T07:54:25.531Z,33.75
2019-05-16T07:55:25.509Z,33.75
2019-05-16T07:56:25.496Z,33.75
2019-05-16T07:57:25.486Z,33.75
2019-05-16T07:58:25.479Z,28.12
2019-05-16T07:59:25.473Z,33.75
2019-05-16T08:00:43.413Z,33.75
2019-05-16T08:01:26.443Z,39.38
2019-05-16T08:02:25.432Z,45.00
2019-05-16T08:03:25.421Z,45.00
2019-05-16T08:04:25.416Z,39.38
2019-05-16T08:05:25.401Z,39.38
2019-05-16T08:06:25.388Z,45.00
2019-05-16T08:07:25.376Z,45.00
2019-05-16T08:08:25.365Z,45.00
2019-05-16T08:09:25.363Z,45.00
2019-05-16T08:10:38.001Z,45.00
2019-05-16T08:11:26.331Z,45.00
2019-05-16T08:12:26.774Z,39.38
2019-05-16T08:13:25.316Z,33.75
2019-05-16T08:14:25.310Z,33.75
2019-05-16T08:15:25.294Z,33.75
2019-05-16T08:16:25.279Z,33.75
2019-05-16T08:17:25.269Z,33.75
2019-05-16T08:18:25.261Z,33.75
2019-05-16T08:19:25.467Z,33.75
2019-05-16T08:20:25.243Z,39.38
2019-05-16T08:21:27.639Z,39.38
2019-05-16T08:22:25.213Z,45.00
2019-05-16T08:23:25.202Z,50.62
2019-05-16T08:24:25.194Z,45.00
2019-05-16T08:25:25.193Z,50.62
2019-05-16T08:26:25.194Z,50.62
2019-05-16T08:27:25.196Z,50.62
2019-05-16T08:28:25.148Z,45.00
2019-05-16T08:29:25.139Z,45.00
2019-05-16T08:30:25.138Z,45.00
2019-05-16T08:31:25.119Z,50.62
2019-05-16T08:32:25.106Z,56.25
2019-05-16T08:33:25.097Z,56.25
2019-05-16T08:34:25.084Z,50.62
2019-05-16T08:35:25.084Z,45.00
2019-05-16T08:36:25.063Z,50.62
2019-05-16T08:38:26.039Z,56.25
2019-05-16T08:39:25.032Z,61.88
2019-05-16T08:40:25.028Z,61.88
2019-05-16T08:41:25.009Z,61.88
2019-05-16T08:42:25.004Z,67.50
2019-05-16T08:43:24.990Z,67.50
2019-05-16T08:44:24.978Z,67.50
2019-05-16T08:45:24.976Z,67.50
2019-05-16T08:46:24.956Z,67.50
2019-05-16T08:47:24.947Z,67.50
2019-05-16T08:48:24.934Z,67.50
2019-05-16T08:49:24.924Z,67.50
2019-05-16T08:50:11.714Z,50.62
2019-05-16T08:50:24.922Z,67.50
2019-05-16T08:51:24.902Z,67.50
2019-05-16T08:52:24.896Z,67.50
2019-05-16T08:53:24.882Z,61.88
2019-05-16T08:54:24.870Z,56.25
2019-05-16T08:55:24.866Z,56.25
2019-05-16T08:56:24.848Z,56.25
2019-05-16T08:57:27.865Z,61.88
2019-05-16T08:58:25.844Z,67.50
2019-05-16T08:59:24.858Z,73.12
2019-05-16T09:00:24.818Z,73.12
2019-05-16T09:01:24.856Z,67.50
2019-05-16T09:02:33.559Z,73.12
2019-05-16T09:03:25.777Z,73.12
2019-05-16T09:04:25.315Z,78.75
2019-05-16T09:05:24.765Z,78.75
2019-05-16T09:06:24.740Z,84.38
2019-05-16T09:07:24.748Z,84.38
2019-05-16T09:08:24.720Z,84.38
2019-05-16T09:09:41.471Z,84.38
2019-05-16T09:11:35.654Z,67.50
2019-05-16T09:12:27.815Z,56.25
2019-05-16T09:13:27.619Z,56.25
2019-05-16T09:14:27.462Z,56.25
2019-05-16T09:15:27.106Z,56.25
2019-05-16T09:16:27.277Z,56.25
2019-05-16T09:17:27.302Z,61.88
2019-05-16T09:18:24.612Z,61.88
2019-05-16T09:19:24.600Z,56.25
2019-05-16T09:20:24.592Z,56.25
2019-05-16T09:21:27.143Z,56.25
2019-05-16T09:22:24.567Z,50.62
2019-05-16T09:23:26.682Z,50.62
2019-05-16T09:24:27.220Z,45.00
2019-05-16T09:25:27.266Z,39.38
2019-05-16T09:26:27.453Z,33.75
2019-05-16T09:27:27.121Z,39.38
2019-05-16T09:28:28.109Z,39.38
2019-05-16T09:29:27.216Z,50.62
2019-05-16T09:30:27.266Z,50.62
2019-05-16T09:31:27.275Z,39.38
2019-05-16T09:32:27.521Z,33.75
2019-05-16T09:33:26.770Z,33.75
2019-05-16T09:34:24.440Z,39.38
2019-05-16T09:35:24.428Z,56.25
2019-05-16T09:36:24.425Z,61.88
2019-05-16T09:37:26.692Z,61.88
2019-05-16T09:38:24.397Z,61.88
2019-05-16T09:39:24.385Z,67.50
2019-05-16T09:40:24.376Z,73.12
2019-05-16T09:41:27.083Z,73.12
2019-05-16T09:42:24.353Z,73.12
2019-05-16T09:43:24.341Z,56.25
2019-05-16T09:44:24.333Z,50.62
2019-05-16T09:45:24.324Z,61.88
2019-05-16T09:46:24.319Z,73.12
2019-05-16T09:47:24.299Z,73.12
2019-05-16T09:48:27.699Z,56.25
2019-05-16T09:49:25.966Z,45.00
2019-05-16T09:50:26.473Z,50.62
2019-05-16T09:51:26.921Z,56.25
2019-05-16T09:52:24.245Z,56.25
2019-05-16T09:53:24.233Z,56.25
2019-05-16T09:54:24.223Z,61.88
2019-05-16T09:55:24.212Z,61.88
2019-05-16T09:56:24.210Z,67.50
2019-05-16T09:57:24.197Z,61.88
2019-05-16T09:58:24.183Z,50.62
2019-05-16T09:59:26.212Z,45.00
2019-05-16T10:00:26.724Z,50.62
2019-05-16T10:01:24.156Z,56.25
2019-05-16T10:02:24.140Z,61.88
2019-05-16T10:03:24.128Z,56.25
2019-05-16T10:04:26.573Z,45.00
2019-05-16T10:05:26.389Z,50.62
2019-05-16T10:06:24.103Z,50.62
2019-05-16T10:07:27.997Z,50.62
2019-05-16T10:08:26.539Z,50.62
2019-05-16T10:09:40.232Z,50.62
2019-05-16T10:10:26.270Z,61.88
2019-05-16T10:11:30.231Z,67.50
2019-05-16T10:12:26.283Z,73.12
2019-05-16T10:13:24.020Z,67.50
2019-05-16T10:14:24.008Z,73.12
2019-05-16T10:15:24.001Z,73.12
2019-05-16T10:16:23.996Z,84.38
2019-05-16T10:17:23.976Z,90.00
2019-05-16T10:18:23.964Z,106.88
2019-05-16T10:19:23.957Z,106.88
2019-05-16T10:20:23.943Z,118.12
2019-05-16T10:21:23.941Z,112.50
2019-05-16T10:22:23.924Z,118.12
2019-05-16T10:23:23.910Z,118.12
2019-05-16T10:24:26.698Z,118.12
2019-05-16T10:25:23.887Z,118.12
2019-05-16T10:26:27.480Z,123.75
2019-05-16T10:27:23.865Z,123.75
2019-05-16T10:28:23.857Z,135.00
2019-05-16T10:29:23.844Z,135.00
2019-05-16T10:30:23.833Z,112.50
2019-05-16T10:31:40.471Z,101.25
2019-05-16T10:32:26.982Z,90.00
2019-05-16T10:33:23.801Z,84.38
2019-05-16T10:34:23.788Z,90.00
2019-05-16T10:35:23.779Z,90.00
2019-05-16T10:36:24.079Z,84.38
2019-05-16T10:37:23.756Z,78.75
2019-05-16T10:38:23.747Z,84.38
2019-05-16T10:39:23.734Z,84.38
2019-05-16T10:40:23.721Z,78.75
2019-05-16T10:41:23.712Z,84.38
2019-05-16T10:42:28.774Z,95.62
2019-05-16T10:43:26.479Z,101.25
2019-05-16T10:44:23.682Z,101.25
2019-05-16T10:45:23.669Z,95.62
2019-05-16T10:46:23.656Z,95.62
2019-05-16T10:47:23.657Z,101.25
2019-05-16T10:48:23.634Z,95.62
2019-05-16T10:49:36.572Z,101.25
2019-05-16T10:50:24.631Z,106.88
2019-05-16T10:51:24.040Z,112.50
2019-05-16T10:52:23.598Z,112.50
2019-05-16T10:53:51.437Z,112.50
2019-05-16T10:54:24.599Z,118.12
2019-05-16T10:55:23.704Z,129.38
2019-05-16T10:56:23.554Z,129.38
2019-05-16T10:57:23.654Z,123.75
2019-05-16T10:58:36.427Z,118.12
2019-05-16T11:00:02.038Z,129.38
2019-05-16T11:00:51.501Z,146.25
2019-05-16T11:01:28.709Z,151.88
2019-05-16T11:02:24.537Z,163.12
2019-05-16T11:03:23.489Z,163.12
2019-05-16T11:04:29.395Z,157.50
2019-05-16T11:05:30.301Z,163.12
2019-05-16T11:06:28.684Z,168.75
2019-05-16T11:07:23.436Z,168.75
2019-05-16T11:08:23.414Z,157.50
2019-05-16T11:09:23.403Z,157.50
2019-05-16T11:10:23.442Z,146.25
2019-05-16T11:11:23.385Z,146.25
2019-05-16T11:12:23.382Z,140.62
2019-05-16T11:13:23.371Z,129.38
2019-05-16T11:14:23.350Z,118.12
2019-05-16T11:15:23.338Z,101.25
2019-05-16T11:16:23.333Z,101.25
2019-05-16T11:17:23.326Z,106.88
2019-05-16T11:18:23.306Z,118.12
2019-05-16T11:19:24.631Z,118.12
2019-05-16T11:20:23.300Z,112.50
2019-05-16T11:21:23.271Z,95.62
2019-05-16T11:22:23.273Z,84.38
2019-05-16T11:23:24.270Z,78.75
2019-05-16T11:24:23.257Z,90.00
2019-05-16T11:25:28.889Z,90.00
2019-05-16T11:26:24.216Z,90.00
2019-05-16T11:27:23.214Z,95.62
2019-05-16T11:28:23.200Z,101.25
2019-05-16T11:29:23.183Z,106.88
2019-05-16T11:30:23.190Z,106.88
2019-05-16T11:31:23.163Z,118.12
2019-05-16T11:32:23.169Z,123.75
2019-05-16T11:33:23.139Z,112.50
2019-05-16T11:34:23.128Z,106.88
2019-05-16T11:35:23.119Z,106.88
2019-05-16T11:36:23.106Z,123.75
2019-05-16T11:37:23.101Z,129.38
2019-05-16T11:38:23.093Z,129.38
2019-05-16T11:39:23.075Z,123.75
2019-05-16T11:40:23.063Z,112.50
2019-05-16T11:41:23.066Z,112.50
2019-05-16T11:42:23.057Z,106.88
2019-05-16T11:43:23.040Z,106.88
2019-05-16T11:44:23.019Z,101.25
2019-05-16T11:45:23.008Z,106.88
2019-05-16T11:46:22.996Z,112.50
2019-05-16T11:47:22.986Z,118.12
2019-05-16T11:48:25.272Z,123.75
2019-05-16T11:49:23.962Z,146.25
2019-05-16T11:50:22.960Z,157.50
2019-05-16T11:51:22.948Z,168.75
2019-05-16T11:52:22.930Z,191.25
2019-05-16T11:53:22.940Z,185.62
2019-05-16T11:54:22.909Z,185.62
2019-05-16T11:55:22.994Z,180.00
2019-05-16T11:56:22.888Z,185.62
2019-05-16T11:57:22.875Z,174.38
2019-05-16T11:58:22.878Z,157.50
2019-05-16T11:59:22.855Z,151.88
2019-05-16T12:00:22.847Z,140.62
2019-05-16T12:01:22.833Z,135.00
2019-05-16T12:02:22.820Z,151.88
2019-05-16T12:03:22.820Z,196.88
2019-05-16T12:04:22.806Z,174.38
2019-05-16T12:05:22.789Z,168.75
2019-05-16T12:06:22.777Z,146.25
2019-05-16T12:07:22.780Z,140.62
2019-05-16T12:08:22.766Z,135.00
2019-05-16T12:09:22.757Z,118.12
2019-05-16T12:10:22.736Z,112.50
2019-05-16T12:11:22.725Z,129.38
2019-05-16T12:12:22.713Z,129.38
2019-05-16T12:13:28.481Z,123.75
2019-05-16T12:14:23.690Z,118.12
2019-05-16T12:15:22.678Z,123.75
2019-05-16T12:16:22.669Z,101.25
2019-05-16T12:17:22.658Z,90.00
2019-05-16T12:18:22.654Z,90.00
2019-05-16T12:19:22.639Z,95.62
2019-05-16T12:20:22.625Z,90.00
2019-05-16T12:21:22.615Z,84.38
2019-05-16T12:22:22.604Z,90.00
2019-05-16T12:23:22.874Z,84.38
2019-05-16T12:24:36.108Z,78.75
2019-05-16T12:25:23.569Z,90.00
2019-05-16T12:26:22.560Z,106.88
2019-05-16T12:27:22.576Z,123.75
2019-05-16T12:28:22.552Z,129.38
2019-05-16T12:29:22.529Z,129.38
2019-05-16T12:30:22.515Z,123.75
2019-05-16T12:31:22.504Z,112.50
2019-05-16T12:32:22.497Z,112.50
2019-05-16T12:33:22.494Z,106.88
2019-05-16T12:34:22.472Z,106.88
2019-05-16T12:35:22.464Z,118.12
2019-05-16T12:36:22.450Z,112.50
2019-05-16T12:37:22.456Z,95.62
2019-05-16T12:38:22.438Z,101.25
2019-05-16T12:39:22.426Z,78.75
2019-05-16T12:40:22.407Z,90.00
2019-05-16T12:41:22.395Z,106.88
2019-05-16T12:42:22.386Z,101.25
2019-05-16T12:43:22.407Z,101.25
2019-05-16T12:44:22.362Z,106.88
2019-05-16T12:45:22.353Z,106.88
2019-05-16T12:46:22.341Z,95.62
2019-05-16T12:47:22.330Z,95.62
2019-05-16T12:48:22.326Z,106.88
2019-05-16T12:49:22.322Z,106.88
2019-05-16T12:50:22.306Z,118.12
2019-05-16T12:51:22.288Z,112.50
2019-05-16T12:52:22.275Z,106.88
2019-05-16T12:53:23.435Z,95.62
2019-05-16T12:54:23.263Z,78.75
2019-05-16T12:55:22.245Z,90.00
2019-05-16T12:56:22.238Z,95.62
2019-05-16T12:57:27.606Z,90.00
2019-05-16T12:58:26.127Z,78.75
2019-05-16T12:59:23.207Z,78.75